Time;durP1;ratioP1;P1;durP2;ratioP2;P2;SDS_P1;SDS_P2;PMS_P1;PMS_P2;Temp;Humidity;BMP_temperature;BMP_pressure;BME280_temperature;BME280_humidity;BME280_pressure;Samples;Min_cycle;Max_cycle;Signal;HPM_P1;HPM_P2
2021/05/07 00:02:54;;;;;;;23.60;18.27;;;;;3.70;100367.00;;;;10459925;28;20187;-78
2021/05/07 00:07:55;;;;;;;25.63;18.70;;;;;3.70;100374.00;;;;10486377;28;20206;-79
2021/05/07 00:12:56;;;;;;;25.87;19.67;;;;;3.60;100366.00;;;;10469258;28;20197;-79
2021/05/07 00:17:58;;;;;;;30.83;21.17;;;;;3.60;100379.00;;;;10430212;28;20653;-78
2021/05/07 00:22:59;;;;;;;32.60;22.13;;;;;3.60;100371.00;;;;10427373;28;20205;-78
2021/05/07 00:28:03;;;;;;;36.13;22.70;;;;;3.60;100372.00;;;;10468952;28;20240;-78
2021/05/07 00:33:06;;;;;;;35.43;21.57;;;;;3.60;100375.00;;;;10468144;28;20193;-79
2021/05/07 00:38:08;;;;;;;31.83;22.13;;;;;3.60;100365.00;;;;10467687;28;20202;-79
2021/05/07 00:43:10;;;;;;;32.87;23.40;;;;;3.60;100369.00;;;;10451918;28;20657;-79
2021/05/07 00:48:13;;;;;;;34.87;23.63;;;;;3.60;100379.00;;;;10467762;28;20189;-80
2021/05/07 00:53:17;;;;;;;35.80;24.93;;;;;3.60;100375.00;;;;10485061;28;20274;-79
2021/05/07 00:58:20;;;;;;;34.20;24.60;;;;;3.50;100378.00;;;;10464205;28;20198;-79
2021/05/07 01:03:22;;;;;;;36.53;23.80;;;;;3.50;100385.00;;;;10415078;28;20193;-79
2021/05/07 01:08:27;;;;;;;31.93;21.97;;;;;3.40;100383.00;;;;10433940;28;20620;-79
2021/05/07 01:13:32;;;;;;;32.70;23.30;;;;;3.40;100381.00;;;;10425398;28;20560;-78
2021/05/07 01:18:39;;;;;;;34.83;23.53;;;;;3.40;100378.00;;;;10449877;28;20206;-80
2021/05/07 01:23:42;;;;;;;35.37;25.37;;;;;3.40;100390.00;;;;10466445;28;20190;-78
2021/05/07 01:28:44;;;;;;;36.07;25.23;;;;;3.40;100383.00;;;;10505435;28;20194;-78
2021/05/07 01:33:45;;;;;;;40.77;28.07;;;;;3.50;100393.00;;;;10457674;28;20224;-78
2021/05/07 01:38:47;;;;;;;36.73;24.87;;;;;3.50;100390.00;;;;10473834;28;20214;-78
2021/05/07 01:43:48;;;;;;;40.77;25.93;;;;;3.50;100393.00;;;;10457749;28;20193;-78
2021/05/07 01:48:50;;;;;;;40.50;25.47;;;;;3.50;100393.00;;;;10457064;28;20197;-78
2021/05/07 01:53:52;;;;;;;42.90;25.23;;;;;3.40;100394.00;;;;10454302;28;20196;-78
2021/05/07 01:58:53;;;;;;;39.17;24.20;;;;;3.60;100403.00;;;;10489890;28;20198;-78
2021/05/07 02:03:55;;;;;;;43.53;27.30;;;;;3.70;100397.00;;;;10473168;28;20197;-78
2021/05/07 02:09:10;;;;;;;38.87;27.33;;;;;3.80;100399.00;;;;10473511;28;20223;-78
2021/05/07 02:14:12;;;;;;;37.53;27.53;;;;;3.80;100400.00;;;;10456340;28;20208;-77
2021/05/07 02:19:13;;;;;;;38.30;26.10;;;;;3.80;100410.00;;;;10472881;28;20213;-78
2021/05/07 02:24:14;;;;;;;42.47;27.33;;;;;3.80;100399.00;;;;10455728;28;20533;-77
2021/05/07 02:29:17;;;;;;;41.27;28.33;;;;;3.80;100411.00;;;;10471970;28;20190;-79
2021/05/07 02:34:19;;;;;;;48.50;29.30;;;;;3.80;100405.00;;;;10488626;28;20232;-78
2021/05/07 02:39:20;;;;;;;42.90;28.23;;;;;3.80;100407.00;;;;10487506;28;20206;-78
2021/05/07 02:44:22;;;;;;;38.30;26.40;;;;;3.80;100406.00;;;;10489821;28;20200;-78
2021/05/07 02:49:23;;;;;;;46.30;26.00;;;;;3.70;100408.00;;;;10472870;28;20220;-78
2021/05/07 02:54:25;;;;;;;38.80;26.43;;;;;3.70;100410.00;;;;10434128;28;20633;-77
2021/05/07 02:59:27;;;;;;;42.70;26.20;;;;;3.90;100420.00;;;;10475402;28;20263;-78
2021/05/07 03:04:28;;;;;;;41.33;29.10;;;;;4.10;100426.00;;;;10454979;28;20198;-78
2021/05/07 03:09:29;;;;;;;45.83;29.97;;;;;4.20;100431.00;;;;10455566;28;20247;-78
2021/05/07 03:14:30;;;;;;;42.93;29.10;;;;;4.40;100444.00;;;;10488271;28;20259;-78
2021/05/07 03:19:32;;;;;;;39.57;26.13;;;;;4.50;100448.00;;;;10475536;28;20206;-77
2021/05/07 03:24:33;;;;;;;32.63;23.17;;;;;4.50;100456.00;;;;10483068;28;20254;-78
2021/05/07 03:29:34;;;;;;;32.00;21.37;;;;;4.50;100458.00;;;;10500374;28;20194;-77
2021/05/07 03:34:36;;;;;;;29.63;22.30;;;;;4.60;100477.00;;;;10452579;28;20244;-77
2021/05/07 03:39:38;;;;;;;23.70;18.63;;;;;4.60;100467.00;;;;10503164;28;20201;-80
2021/05/07 03:44:39;;;;;;;28.00;20.40;;;;;4.70;100472.00;;;;10454033;28;20216;-79
2021/05/07 03:49:40;;;;;;;32.43;20.93;;;;;4.70;100469.00;;;;10436099;28;20296;-79
2021/05/07 03:54:44;;;;;;;30.53;22.57;;;;;4.70;100476.00;;;;10452531;28;20201;-79
2021/05/07 03:59:46;;;;;;;27.90;21.67;;;;;4.70;100492.00;;;;10467306;28;20699;-77
2021/05/07 04:04:47;;;;;;;32.13;21.73;;;;;4.70;100507.00;;;;10449788;28;20220;-78
2021/05/07 04:14:50;;;;;;;23.77;19.00;;;;;4.90;100512.00;;;;10478569;28;20710;-80
2021/05/07 04:19:51;;;;;;;22.10;16.23;;;;;5.00;100531.00;;;;10451521;28;20217;-77
2021/05/07 04:24:52;;;;;;;15.93;13.03;;;;;5.20;100542.00;;;;10481797;28;20193;-78
2021/05/07 04:29:53;;;;;;;21.00;13.50;;;;;5.30;100540.00;;;;10502693;28;20202;-80
2021/05/07 04:34:55;;;;;;;18.50;11.73;;;;;5.60;100559.00;;;;10469661;28;20718;-80
2021/05/07 04:39:56;;;;;;;14.67;10.07;;;;;5.60;100571.00;;;;10448625;28;20283;-77
2021/05/07 04:44:57;;;;;;;17.77;11.00;;;;;5.70;100583.00;;;;10462383;28;20189;-79
2021/05/07 04:49:59;;;;;;;18.03;11.33;;;;;5.70;100574.00;;;;10465886;28;20213;-79
2021/05/07 04:55:01;;;;;;;15.07;10.87;;;;;5.70;100597.00;;;;10475915;28;20202;-79
2021/05/07 05:00:04;;;;;;;19.50;10.43;;;;;5.70;100608.00;;;;10440432;28;20217;-79
2021/05/07 05:05:06;;;;;;;16.07;9.97;;;;;6.00;100609.00;;;;10462194;28;20244;-78
2021/05/07 05:10:08;;;;;;;6.87;5.83;;;;;5.90;100605.00;;;;10518270;28;20254;-79
2021/05/07 05:15:10;;;;;;;10.97;7.67;;;;;5.80;100630.00;;;;10506228;28;20207;-78
2021/05/07 05:20:12;;;;;;;11.30;8.53;;;;;5.70;100640.00;;;;10484383;28;20308;-79
2021/05/07 05:25:13;;;;;;;10.93;7.00;;;;;6.10;100662.00;;;;10495199;28;20185;-80
2021/05/07 05:30:15;;;;;;;12.30;7.60;;;;;6.10;100680.00;;;;10470181;28;20209;-78
2021/05/07 05:35:17;;;;;;;9.13;6.80;;;;;6.20;100672.00;;;;10463317;28;20553;-78
2021/05/07 05:40:18;;;;;;;9.87;6.80;;;;;6.90;100678.00;;;;10492927;28;20202;-78
2021/05/07 05:45:22;;;;;;;10.07;6.80;;;;;7.30;100712.00;;;;10459784;28;20186;-78
2021/05/07 05:50:23;;;;;;;7.43;6.70;;;;;7.00;100726.00;;;;10492531;28;20213;-78
2021/05/07 05:55:24;;;;;;;9.50;5.93;;;;;6.70;100736.00;;;;10463719;28;20220;-78
2021/05/07 06:00:27;;;;;;;7.30;5.23;;;;;7.20;100751.00;;;;10469444;28;20677;-78
2021/05/07 06:05:28;;;;;;;7.07;6.37;;;;;7.20;100769.00;;;;10476034;28;20644;-79
2021/05/07 06:10:30;;;;;;;5.43;4.93;;;;;6.90;100782.00;;;;10489480;28;20587;-78
2021/05/07 06:15:31;;;;;;;4.83;4.43;;;;;6.60;100790.00;;;;10484602;28;20233;-78
2021/05/07 06:20:32;;;;;;;4.47;4.10;;;;;6.50;100797.00;;;;10488325;28;20201;-78
2021/05/07 06:25:40;;;;;;;4.60;4.17;;;;;6.40;100802.00;;;;10489464;28;20200;-78
2021/05/07 06:30:42;;;;;;;4.20;3.90;;;;;8.00;100810.00;;;;10517418;28;20198;-78
2021/05/07 06:35:43;;;;;;;5.43;4.33;;;;;8.70;100823.00;;;;10456492;28;20193;-78
2021/05/07 06:40:45;;;;;;;4.83;4.40;;;;;8.60;100845.00;;;;10470291;28;20202;-78
2021/05/07 06:45:46;;;;;;;3.87;3.57;;;;;8.20;100862.00;;;;10470958;28;20217;-79
2021/05/07 06:50:47;;;;;;;5.43;4.93;;;;;8.50;100868.00;;;;10505842;28;20201;-78
2021/05/07 06:55:49;;;;;;;5.37;4.87;;;;;8.20;100873.00;;;;10455863;28;20244;-78
2021/05/07 07:01:11;;;;;;;4.97;4.43;;;;;8.20;100882.00;;;;10491535;28;20242;-78
2021/05/07 07:06:13;;;;;;;5.20;4.80;;;;;8.30;100891.00;;;;10451670;28;20209;-78
2021/05/07 07:11:14;;;;;;;5.00;4.60;;;;;9.20;100908.00;;;;10475670;28;20715;-78
2021/05/07 07:16:15;;;;;;;4.40;4.00;;;;;9.70;100904.00;;;;10454091;28;20475;-78
2021/05/07 07:21:17;;;;;;;4.50;4.10;;;;;10.20;100895.00;;;;10479856;28;20253;-77
2021/05/07 07:26:18;;;;;;;3.60;3.30;;;;;10.70;100911.00;;;;10462475;28;20269;-78
2021/05/07 07:31:21;;;;;;;4.23;3.87;;;;;11.30;100917.00;;;;10501390;28;20197;-78
2021/05/07 07:36:23;;;;;;;3.90;3.60;;;;;11.60;100926.00;;;;10482316;28;20489;-78
2021/05/07 07:41:24;;;;;;;3.13;2.93;;;;;11.70;100932.00;;;;10501907;28;20201;-78
2021/05/07 07:46:27;;;;;;;3.50;3.20;;;;;12.10;100936.00;;;;10471198;28;20281;-78
2021/05/07 07:51:33;;;;;;;3.47;3.27;;;;;12.80;100939.00;;;;10475444;28;20189;-78
2021/05/07 07:56:35;;;;;;;7.47;3.00;;;;;11.70;100949.00;;;;10459993;28;20252;-77
2021/05/07 08:01:36;;;;;;;3.17;2.60;;;;;10.90;100958.00;;;;10461449;28;20216;-78
2021/05/07 08:06:38;;;;;;;3.13;2.83;;;;;11.60;100967.00;;;;10505680;28;20312;-78
2021/05/07 08:11:40;;;;;;;3.27;2.97;;;;;12.90;100973.00;;;;10533679;28;20188;-78
2021/05/07 08:16:42;;;;;;;5.37;3.30;;;;;14.50;100977.00;;;;10492868;28;20236;-78
2021/05/07 08:21:43;;;;;;;3.40;2.67;;;;;15.40;100973.00;;;;10504324;28;20209;-77
2021/05/07 08:26:45;;;;;;;4.40;2.90;;;;;14.20;100987.00;;;;10483529;28;20229;-78
2021/05/07 08:31:46;;;;;;;3.07;2.77;;;;;14.60;100986.00;;;;10484828;28;20186;-78
2021/05/07 08:36:48;;;;;;;2.40;2.20;;;;;14.00;100995.00;;;;10488639;28;20200;-77
2021/05/07 08:41:49;;;;;;;4.03;2.43;;;;;14.30;101004.00;;;;10493700;28;20217;-78
2021/05/07 08:46:51;;;;;;;4.87;2.40;;;;;14.80;101009.00;;;;10477013;28;20201;-78
2021/05/07 08:51:53;;;;;;;3.53;2.43;;;;;15.00;101018.00;;;;10469079;28;20213;-78
2021/05/07 08:56:58;;;;;;;3.20;2.53;;;;;16.50;101008.00;;;;10492687;28;20209;-77
2021/05/07 09:02:00;;;;;;;5.07;2.47;;;;;16.60;101010.00;;;;10510632;28;20731;-78
2021/05/07 09:07:11;;;;;;;3.87;2.50;;;;;17.50;101013.00;;;;10456192;28;20217;-76
2021/05/07 09:12:14;;;;;;;3.17;2.42;;;;;18.00;101019.00;;;;10503910;28;20198;-76
2021/05/07 09:17:19;;;;;;;3.70;2.50;;;;;17.70;101031.00;;;;10489019;28;20224;-76
2021/05/07 09:22:26;;;;;;;4.07;3.22;;;;;15.20;101048.00;;;;10486732;28;20285;-75
2021/05/07 09:27:27;;;;;;;3.37;3.07;;;;;16.00;101045.00;;;;10486272;28;20205;-76
2021/05/07 09:32:31;;;;;;;2.87;2.60;;;;;16.70;101042.00;;;;10486120;28;20193;-75
2021/05/07 09:37:32;;;;;;;4.35;3.20;;;;;17.80;101046.00;;;;10475010;28;20233;-79
2021/05/07 09:42:35;;;;;;;4.03;3.67;;;;;18.50;101058.00;;;;10491020;28;20223;-76
2021/05/07 09:47:37;;;;;;;5.72;3.80;;;;;16.60;101064.00;;;;10503111;28;20556;-76
2021/05/07 09:52:38;;;;;;;4.70;3.77;;;;;16.20;101065.00;;;;10495514;28;20197;-78
2021/05/07 09:57:40;;;;;;;4.03;3.60;;;;;16.30;101074.00;;;;10474796;28;20618;-78
2021/05/07 10:02:41;;;;;;;4.43;3.73;;;;;17.90;101073.00;;;;10471968;28;20194;-75
2021/05/07 10:07:43;;;;;;;4.00;3.53;;;;;16.90;101070.00;;;;10451672;28;20247;-78
2021/05/07 10:12:46;;;;;;;3.80;3.50;;;;;16.80;101087.00;;;;10503709;28;20186;-76
2021/05/07 10:17:49;;;;;;;5.13;4.30;;;;;16.30;101089.00;;;;10467778;28;20235;-76
2021/05/07 10:22:57;;;;;;;5.70;5.17;;;;;16.30;101088.00;;;;10445777;28;20202;-76
2021/05/07 10:27:58;;;;;;;6.65;4.90;;;;;18.70;101087.00;;;;10462215;28;20194;-76
2021/05/07 10:33:08;;;;;;;5.47;5.07;;;;;19.30;101101.00;;;;10475013;28;20556;-76
2021/05/07 10:38:15;;;;;;;6.82;5.00;;;;;17.40;101103.00;;;;10498948;28;20660;-75
2021/05/07 10:43:17;;;;;;;6.28;4.57;;;;;18.00;101094.00;;;;10489220;28;20728;-79
2021/05/07 10:48:25;;;;;;;4.88;4.38;;;;;19.60;101100.00;;;;10480130;28;21691;-76
2021/05/07 10:53:28;;;;;;;5.07;4.22;;;;;17.70;101105.00;;;;10447614;28;20193;-78
2021/05/07 10:58:35;;;;;;;7.88;3.60;;;;;16.80;101108.00;;;;10484983;28;20201;-78
2021/05/07 11:03:36;;;;;;;4.88;3.30;;;;;18.70;101102.00;;;;10485623;28;20264;-78
2021/05/07 11:08:37;;;;;;;3.30;3.00;;;;;19.60;101105.00;;;;10465370;28;20565;-76
2021/05/07 11:13:42;;;;;;;4.53;3.45;;;;;19.40;101096.00;;;;10462957;28;20272;-76
2021/05/07 11:18:47;;;;;;;6.05;3.20;;;;;20.20;101095.00;;;;10489983;28;20201;-76
2021/05/07 11:23:49;;;;;;;4.82;3.70;;;;;21.40;101101.00;;;;10438698;28;20239;-75
2021/05/07 11:28:50;;;;;;;4.97;3.70;;;;;20.60;101104.00;;;;10474785;28;20181;-75
2021/05/07 11:33:51;;;;;;;5.40;4.03;;;;;17.30;101120.00;;;;10479994;28;20645;-76
2021/05/07 11:38:53;;;;;;;4.20;3.80;;;;;18.30;101127.00;;;;10480948;28;20766;-76
2021/05/07 11:43:55;;;;;;;6.57;4.38;;;;;17.80;101121.00;;;;10463337;28;20193;-76
2021/05/07 11:48:56;;;;;;;4.13;3.83;;;;;19.60;101117.00;;;;10480301;28;20532;-76
2021/05/07 11:53:58;;;;;;;3.97;3.50;;;;;19.50;101126.00;;;;10510355;28;20201;-75
2021/05/07 11:59:00;;;;;;;4.60;4.20;;;;;20.20;101120.00;;;;10463383;28;20213;-76
2021/05/07 12:04:02;;;;;;;4.75;4.28;;;;;18.60;101127.00;;;;10459188;28;20220;-76
2021/05/07 12:09:09;;;;;;;5.00;4.50;;;;;16.70;101138.00;;;;10459013;28;20225;-78
2021/05/07 12:14:12;;;;;;;6.05;4.55;;;;;15.40;101130.00;;;;10451124;28;20208;-76
2021/05/07 12:19:20;;;;;;;5.17;4.67;;;;;16.50;101136.00;;;;10463058;28;20235;-75
2021/05/07 12:24:29;;;;;;;3.97;3.45;;;;;18.90;101134.00;;;;10477175;28;20271;-76
2021/05/07 12:29:37;;;;;;;4.05;3.75;;;;;20.30;101142.00;;;;10479211;28;20182;-76
2021/05/07 12:34:40;;;;;;;6.30;4.13;;;;;19.00;101142.00;;;;10479037;28;20185;-76
2021/05/07 12:39:41;;;;;;;4.22;3.83;;;;;20.30;101146.00;;;;10461805;28;20259;-76
2021/05/07 12:44:42;;;;;;;4.60;4.10;;;;;20.60;101147.00;;;;10461478;28;20209;-76
2021/05/07 12:49:43;;;;;;;4.00;3.70;;;;;19.70;101147.00;;;;10420599;28;20264;-76
2021/05/07 12:54:45;;;;;;;4.63;3.83;;;;;19.00;101165.00;;;;10453138;28;20205;-78
2021/05/07 12:59:46;;;;;;;6.25;4.45;;;;;17.70;101160.00;;;;10514496;28;20248;-76
2021/05/07 13:04:48;;;;;;;4.80;4.32;;;;;20.40;101142.00;;;;10511197;28;20213;-76
2021/05/07 13:09:49;;;;;;;4.72;4.28;;;;;21.30;101162.00;;;;10477646;28;20925;-76
2021/05/07 13:14:50;;;;;;;7.15;4.88;;;;;22.40;101179.00;;;;10477696;28;20683;-76
2021/05/07 13:19:55;;;;;;;6.35;4.05;;;;;22.50;101179.00;;;;10461267;28;20206;-75
2021/05/07 13:24:57;;;;;;;5.25;3.55;;;;;22.30;101180.00;;;;10471794;28;20281;-76
2021/05/07 13:29:58;;;;;;;3.90;3.60;;;;;23.60;101175.00;;;;10462838;28;20188;-76
2021/05/07 13:34:59;;;;;;;4.70;4.20;;;;;19.50;101189.00;;;;10468163;28;20194;-76
2021/05/07 13:40:03;;;;;;;4.70;3.72;;;;;22.80;101183.00;;;;10468259;28;20561;-76
2021/05/07 13:45:07;;;;;;;6.95;3.80;;;;;23.20;101200.00;;;;10470341;28;20189;-76
2021/05/07 13:50:09;;;;;;;5.07;4.10;;;;;18.70;101199.00;;;;10451371;28;20640;-76
2021/05/07 13:55:11;;;;;;;4.68;4.28;;;;;16.70;101192.00;;;;10483889;28;20197;-75
2021/05/07 14:00:13;;;;;;;4.50;4.03;;;;;20.90;101184.00;;;;10452124;28;20296;-75
2021/05/07 14:05:14;;;;;;;4.78;4.28;;;;;20.30;101172.00;;;;10448136;28;20260;-79
2021/05/07 14:10:16;;;;;;;4.82;4.28;;;;;20.30;101186.00;;;;10479554;28;20177;-77
2021/05/07 14:15:17;;;;;;;5.00;4.13;;;;;24.30;101175.00;;;;10487112;28;20193;-76
2021/05/07 14:20:18;;;;;;;3.75;3.45;;;;;20.70;101197.00;;;;10500979;28;20202;-76
2021/05/07 14:25:20;;;;;;;3.17;2.88;;;;;26.00;101191.00;;;;10501237;28;20272;-78
2021/05/07 14:30:22;;;;;;;3.70;3.40;;;;;21.50;101202.00;;;;10466800;28;20199;-75
2021/05/07 14:35:23;;;;;;;3.58;3.25;;;;;24.60;101178.00;;;;10481945;28;20676;-76
2021/05/07 14:40:24;;;;;;;3.17;2.75;;;;;27.90;101190.00;;;;10483477;28;20208;-76
2021/05/07 14:45:26;;;;;;;4.25;3.38;;;;;23.90;101215.00;;;;10485675;28;20197;-76
2021/05/07 14:50:27;;;;;;;3.38;3.08;;;;;26.00;101183.00;;;;10539384;28;20664;-75
2021/05/07 14:55:28;;;;;;;4.15;3.25;;;;;28.70;101219.00;;;;10506042;28;20267;-76
2021/05/07 15:00:30;;;;;;;3.75;3.10;;;;;23.80;101221.00;;;;10523107;28;20197;-76
2021/05/07 15:05:31;;;;;;;3.78;3.10;;;;;27.10;101204.00;;;;10495253;28;20646;-76
2021/05/07 15:10:33;;;;;;;3.17;2.90;;;;;21.60;101223.00;;;;10508255;28;20644;-76
2021/05/07 15:15:34;;;;;;;3.80;3.00;;;;;21.50;101213.00;;;;10541678;28;21087;-77
2021/05/07 15:20:38;;;;;;;3.88;3.10;;;;;25.70;101182.00;;;;10498614;28;20212;-78
2021/05/07 15:25:40;;;;;;;3.20;2.88;;;;;24.90;101209.00;;;;10485437;28;20188;-76
2021/05/07 15:30:41;;;;;;;5.80;2.70;;;;;24.30;101207.00;;;;10509568;28;20193;-77
2021/05/07 15:35:43;;;;;;;3.78;3.03;;;;;21.10;101197.00;;;;10506983;28;20201;-77
2021/05/07 15:40:44;;;;;;;3.78;3.08;;;;;27.20;101181.00;;;;10483750;28;20216;-78
2021/05/07 15:45:46;;;;;;;3.17;2.60;;;;;29.30;101188.00;;;;10513214;28;20658;-77
2021/05/07 15:50:47;;;;;;;3.17;2.72;;;;;29.40;101206.00;;;;10533740;28;20177;-77
2021/05/07 15:55:49;;;;;;;2.58;2.38;;;;;28.30;101198.00;;;;10520767;28;20200;-77
2021/05/07 16:00:50;;;;;;;3.25;2.70;;;;;26.80;101205.00;;;;10506171;28;20671;-77
2021/05/07 16:05:51;;;;;;;3.95;2.90;;;;;22.80;101209.00;;;;10519813;28;20216;-78
2021/05/07 16:10:53;;;;;;;4.78;3.00;;;;;19.20;101205.00;;;;10522260;28;20196;-78
2021/05/07 16:15:55;;;;;;;3.28;2.97;;;;;17.70;101216.00;;;;10504175;28;20193;-77
2021/05/07 16:20:57;;;;;;;4.32;3.08;;;;;18.40;101219.00;;;;10503144;28;20205;-77
2021/05/07 16:26:21;;;;;;;5.15;3.10;;;;;16.60;101221.00;;;;10544159;28;20271;-77
2021/05/07 16:31:22;;;;;;;4.13;3.50;;;;;15.70;101220.00;;;;10519791;28;20268;-77
2021/05/07 16:36:27;;;;;;;3.10;2.90;;;;;15.60;101217.00;;;;10514075;28;20199;-77
2021/05/07 16:41:29;;;;;;;3.67;3.33;;;;;15.30;101221.00;;;;10503382;28;20209;-77
2021/05/07 16:46:30;;;;;;;4.07;3.30;;;;;15.20;101227.00;;;;10502928;28;20204;-77
2021/05/07 16:51:32;;;;;;;3.27;2.97;;;;;14.90;101232.00;;;;10521136;28;20189;-77
2021/05/07 16:56:35;;;;;;;8.40;2.80;;;;;14.30;101223.00;;;;10472617;28;20272;-77
2021/05/07 17:01:37;;;;;;;3.43;3.10;;;;;14.00;101219.00;;;;10511088;28;20224;-77
2021/05/07 17:06:39;;;;;;;3.30;2.97;;;;;14.20;101221.00;;;;10510352;28;20212;-77
2021/05/07 17:11:40;;;;;;;3.30;2.87;;;;;14.50;101223.00;;;;10509986;28;20636;-77
2021/05/07 17:16:41;;;;;;;4.73;3.10;;;;;14.30;101218.00;;;;10525985;28;20242;-77
2021/05/07 17:21:43;;;;;;;2.93;2.40;;;;;14.10;101214.00;;;;10477719;28;20231;-77
2021/05/07 17:26:44;;;;;;;2.90;2.60;;;;;13.90;101208.00;;;;10508454;28;20188;-77
2021/05/07 17:31:45;;;;;;;3.50;2.63;;;;;13.80;101226.00;;;;10489066;28;20193;-77
2021/05/07 17:36:47;;;;;;;5.13;2.80;;;;;13.60;101232.00;;;;10508741;28;20193;-76
2021/05/07 17:41:48;;;;;;;2.60;2.27;;;;;13.50;101232.00;;;;10509318;28;20204;-77
2021/05/07 17:46:49;;;;;;;2.93;2.30;;;;;13.40;101233.00;;;;10522861;28;20204;-77
2021/05/07 17:51:51;;;;;;;5.17;2.80;;;;;13.20;101232.00;;;;10497820;28;20712;-76
2021/05/07 17:56:59;;;;;;;2.77;2.30;;;;;13.10;101232.00;;;;10506971;28;20269;-77
2021/05/07 18:02:00;;;;;;;5.17;2.87;;;;;12.90;101228.00;;;;10523097;28;20205;-77
2021/05/07 18:07:07;;;;;;;4.47;2.70;;;;;12.80;101234.00;;;;10523037;28;20267;-77
2021/05/07 18:12:08;;;;;;;6.43;2.53;;;;;12.70;101237.00;;;;10506738;28;20200;-77
2021/05/07 18:17:09;;;;;;;2.97;2.67;;;;;12.60;101241.00;;;;10494961;28;20193;-77
2021/05/07 18:22:11;;;;;;;4.20;2.60;;;;;12.50;101237.00;;;;10490867;28;20235;-77
2021/05/07 18:27:13;;;;;;;2.50;2.17;;;;;12.30;101232.00;;;;10506319;28;20223;-76
2021/05/07 18:32:14;;;;;;;5.07;2.60;;;;;12.10;101237.00;;;;10523254;28;20257;-77
2021/05/07 18:37:17;;;;;;;4.63;2.67;;;;;11.90;101235.00;;;;10470357;28;20193;-76
2021/05/07 18:42:18;;;;;;;5.90;2.93;;;;;11.70;101238.00;;;;10448483;28;20282;-77
2021/05/07 18:47:25;;;;;;;4.43;2.50;;;;;11.40;101239.00;;;;10502327;28;20598;-77
2021/05/07 18:52:29;;;;;;;3.77;2.43;;;;;11.30;101240.00;;;;10495021;28;20564;-77
2021/05/07 18:57:30;;;;;;;2.37;2.00;;;;;11.00;101243.00;;;;10533271;28;20192;-77
2021/05/07 19:02:32;;;;;;;3.87;2.60;;;;;10.80;101248.00;;;;10539156;28;20217;-76
2021/05/07 19:07:33;;;;;;;4.63;2.33;;;;;10.40;101247.00;;;;10534618;28;20248;-77
2021/05/07 19:12:36;;;;;;;4.70;2.63;;;;;10.20;101243.00;;;;10486515;28;20242;-77
2021/05/07 19:17:38;;;;;;;4.07;2.60;;;;;10.00;101250.00;;;;10504343;28;20189;-77
2021/05/07 19:22:52;;;;;;;5.57;2.87;;;;;9.80;101240.00;;;;10488270;28;20552;-77
2021/05/07 19:27:53;;;;;;;5.03;2.50;;;;;9.50;101246.00;;;;10509952;28;20193;-77
2021/05/07 19:32:56;;;;;;;3.23;2.67;;;;;9.40;101257.00;;;;10504851;28;20567;-77
2021/05/07 19:37:57;;;;;;;6.30;2.87;;;;;9.10;101253.00;;;;10506826;28;20254;-77
2021/05/07 19:42:59;;;;;;;6.77;3.50;;;;;8.90;101255.00;;;;10490515;28;20193;-77
2021/05/07 19:48:01;;;;;;;6.90;3.93;;;;;8.70;101263.00;;;;10525351;28;20195;-78
2021/05/07 19:53:03;;;;;;;6.37;3.03;;;;;8.60;101253.00;;;;10508734;28;20656;-77
2021/05/07 19:58:04;;;;;;;4.13;3.00;;;;;8.40;101266.00;;;;10508234;28;20212;-77
2021/05/07 20:03:06;;;;;;;5.27;3.63;;;;;8.30;101266.00;;;;10520860;28;20185;-78
2021/05/07 20:08:09;;;;;;;4.90;3.13;;;;;8.10;101268.00;;;;10491519;28;20227;-77
2021/05/07 20:13:11;;;;;;;5.43;3.43;;;;;8.00;101268.00;;;;10490584;28;20189;-77
2021/05/07 20:18:12;;;;;;;4.43;3.93;;;;;7.80;101272.00;;;;10506535;28;20243;-78
2021/05/07 20:23:14;;;;;;;5.83;3.50;;;;;7.70;101275.00;;;;10492042;28;20644;-78
2021/05/07 20:28:16;;;;;;;6.93;4.73;;;;;7.60;101275.00;;;;10508771;28;20195;-78
2021/05/07 20:33:22;;;;;;;7.93;4.70;;;;;7.60;101273.00;;;;10489970;28;20208;-78
2021/05/07 20:38:23;;;;;;;10.40;5.10;;;;;7.60;101272.00;;;;10501738;28;20239;-77
2021/05/07 20:43:24;;;;;;;9.40;5.73;;;;;7.60;101271.00;;;;10499078;28;20234;-78
2021/05/07 20:48:26;;;;;;;6.27;4.93;;;;;7.50;101266.00;;;;10524116;28;20736;-78
2021/05/07 20:53:27;;;;;;;8.90;5.40;;;;;7.40;101271.00;;;;10525041;28;20192;-78
2021/05/07 20:58:33;;;;;;;5.70;5.07;;;;;7.40;101279.00;;;;10524048;28;20576;-78
2021/05/07 21:03:37;;;;;;;5.53;4.87;;;;;7.50;101277.00;;;;10508832;28;20193;-78
2021/05/07 21:08:38;;;;;;;7.33;5.33;;;;;7.40;101271.00;;;;10523160;28;20576;-78
2021/05/07 21:13:40;;;;;;;6.23;4.97;;;;;7.30;101280.00;;;;10507006;28;20203;-76
2021/05/07 21:18:41;;;;;;;8.97;6.00;;;;;7.20;101279.00;;;;10537968;28;20296;-79
2021/05/07 21:23:42;;;;;;;9.90;5.53;;;;;7.10;101273.00;;;;10526002;28;20250;-78
2021/05/07 21:28:44;;;;;;;7.43;6.40;;;;;7.00;101274.00;;;;10526432;28;20659;-79
2021/05/07 21:33:45;;;;;;;9.80;7.37;;;;;6.90;101270.00;;;;10525070;28;20193;-79
2021/05/07 21:38:47;;;;;;;8.60;5.97;;;;;6.80;101259.00;;;;10543897;28;20205;-79
2021/05/07 21:43:48;;;;;;;9.20;7.33;;;;;6.90;101263.00;;;;10532528;28;20192;-78
2021/05/07 21:48:49;;;;;;;10.40;7.70;;;;;6.80;101265.00;;;;10541778;28;20662;-78
2021/05/07 21:53:51;;;;;;;9.90;6.83;;;;;6.60;101262.00;;;;10554579;28;20200;-78
2021/05/07 21:58:52;;;;;;;10.87;8.27;;;;;6.60;101258.00;;;;10517152;28;20208;-77
2021/05/07 22:03:53;;;;;;;10.17;6.57;;;;;6.70;101264.00;;;;10532482;28;20188;-78
2021/05/07 22:08:55;;;;;;;6.87;6.17;;;;;6.80;101269.00;;;;10538954;28;20597;-79
2021/05/07 22:13:56;;;;;;;9.90;6.53;;;;;7.00;101254.00;;;;10542782;28;20214;-79
2021/05/07 22:18:57;;;;;;;10.20;6.97;;;;;7.10;101260.00;;;;10484912;28;20235;-77
2021/05/07 22:23:59;;;;;;;11.77;8.47;;;;;7.20;101263.00;;;;10541507;28;20655;-79
2021/05/07 22:29:02;;;;;;;15.57;7.73;;;;;7.20;101262.00;;;;10525846;28;20184;-78
2021/05/07 22:34:03;;;;;;;11.27;6.73;;;;;7.20;101268.00;;;;10564390;28;20266;-79
2021/05/07 22:39:05;;;;;;;11.43;7.20;;;;;7.40;101263.00;;;;10538313;28;20201;-79
2021/05/07 22:44:08;;;;;;;9.63;6.53;;;;;7.40;101268.00;;;;10517475;28;20279;-78
2021/05/07 22:49:09;;;;;;;7.53;6.73;;;;;7.40;101266.00;;;;10532694;28;20196;-79
2021/05/07 22:54:11;;;;;;;8.17;6.57;;;;;7.30;101258.00;;;;10511820;28;20216;-79
2021/05/07 22:59:12;;;;;;;10.83;6.63;;;;;7.10;101246.00;;;;10516137;28;20684;-78
2021/05/07 23:04:13;;;;;;;9.50;7.50;;;;;7.00;101248.00;;;;10498689;28;20193;-78
2021/05/07 23:09:14;;;;;;;9.00;7.20;;;;;6.80;101240.00;;;;10498092;28;20262;-79
2021/05/07 23:14:16;;;;;;;11.47;8.07;;;;;6.70;101243.00;;;;10495207;28;20197;-76
2021/05/07 23:19:17;;;;;;;10.27;7.97;;;;;6.60;101243.00;;;;10545686;28;20211;-77
2021/05/07 23:24:19;;;;;;;10.60;8.03;;;;;6.60;101242.00;;;;10545768;28;20242;-78
2021/05/07 23:29:20;;;;;;;12.40;7.87;;;;;6.70;101227.00;;;;10529363;28;20588;-78
2021/05/07 23:34:21;;;;;;;11.13;8.70;;;;;6.60;101236.00;;;;10510008;28;20230;-77
2021/05/07 23:39:23;;;;;;;11.87;8.27;;;;;6.50;101217.00;;;;10486355;28;20217;-78
2021/05/07 23:44:24;;;;;;;10.90;7.17;;;;;6.30;101216.00;;;;10488049;28;20201;-77
2021/05/07 23:49:25;;;;;;;11.47;8.70;;;;;6.30;101204.00;;;;10470364;28;20247;-77
2021/05/07 23:54:28;;;;;;;10.43;9.33;;;;;6.30;101204.00;;;;10479295;28;20193;-77
2021/05/07 23:59:29;;;;;;;12.37;8.83;;;;;6.30;101209.00;;;;10495043;28;20216;-77
